sensor_id;sensor_type;location;lat;lon;timestamp;pressure;altitude;pressure_sealevel;temperature;humidity
20037;BME280;10179;42.640;23.312;2022-08-25T00:00:44;93627.75;;;24.52;57.32
20037;BME280;10179;42.640;23.312;2022-08-25T00:03:10;93624.44;;;24.55;57.47
20037;BME280;10179;42.640;23.312;2022-08-25T00:05:36;93625.38;;;24.50;57.33
20037;BME280;10179;42.640;23.312;2022-08-25T00:08:02;93615.25;;;24.47;57.48
20037;BME280;10179;42.640;23.312;2022-08-25T00:10:31;93633.28;;;24.56;57.58
20037;BME280;10179;42.640;23.312;2022-08-25T00:12:56;93629.03;;;24.55;57.56
20037;BME280;10179;42.640;23.312;2022-08-25T00:15:22;93630.47;;;24.61;57.37
20037;BME280;10179;42.640;23.312;2022-08-25T00:17:48;93628.25;;;24.63;57.43
20037;BME280;10179;42.640;23.312;2022-08-25T00:20:13;93556.41;;;24.20;57.53
20037;BME280;10179;42.640;23.312;2022-08-25T00:22:39;93624.78;;;24.71;57.29
20037;BME280;10179;42.640;23.312;2022-08-25T00:25:06;93629.53;;;24.74;57.38
20037;BME280;10179;42.640;23.312;2022-08-25T00:27:31;93623.53;;;24.77;57.10
20037;BME280;10179;42.640;23.312;2022-08-25T00:29:57;93620.53;;;24.87;57.02
20037;BME280;10179;42.640;23.312;2022-08-25T00:32:22;93612.03;;;24.85;56.69
20037;BME280;10179;42.640;23.312;2022-08-25T00:34:49;93612.34;;;24.92;56.84
20037;BME280;10179;42.640;23.312;2022-08-25T00:37:15;93619.28;;;24.93;56.65
20037;BME280;10179;42.640;23.312;2022-08-25T00:39:40;93624.97;;;24.92;56.52
20037;BME280;10179;42.640;23.312;2022-08-25T00:42:07;93630.19;;;24.88;56.59
20037;BME280;10179;42.640;23.312;2022-08-25T00:44:33;93623.84;;;24.84;56.67
20037;BME280;10179;42.640;23.312;2022-08-25T00:47:01;93620.84;;;24.77;56.80
20037;BME280;10179;42.640;23.312;2022-08-25T00:49:38;93625.75;;;24.75;56.91
20037;BME280;10179;42.640;23.312;2022-08-25T00:52:10;93632.22;;;24.74;57.08
20037;BME280;10179;42.640;23.312;2022-08-25T00:54:44;93630.63;;;24.73;57.08
20037;BME280;10179;42.640;23.312;2022-08-25T00:57:14;93623.50;;;24.60;57.14
20037;BME280;10179;42.640;23.312;2022-08-25T00:59:41;93636.78;;;24.65;57.30
20037;BME280;10179;42.640;23.312;2022-08-25T01:02:07;93623.38;;;24.65;57.40
20037;BME280;10179;42.640;23.312;2022-08-25T01:04:34;93618.00;;;24.65;57.30
20037;BME280;10179;42.640;23.312;2022-08-25T01:07:00;93618.44;;;24.67;57.65
20037;BME280;10179;42.640;23.312;2022-08-25T01:09:28;93604.56;;;24.65;57.51
20037;BME280;10179;42.640;23.312;2022-08-25T01:11:55;93607.25;;;24.73;57.39
20037;BME280;10179;42.640;23.312;2022-08-25T01:14:23;93604.25;;;24.75;57.43
20037;BME280;10179;42.640;23.312;2022-08-25T01:16:49;93599.84;;;24.79;57.14
20037;BME280;10179;42.640;23.312;2022-08-25T01:19:15;93591.28;;;24.77;56.96
20037;BME280;10179;42.640;23.312;2022-08-25T01:21:47;93579.28;;;24.83;57.04
20037;BME280;10179;42.640;23.312;2022-08-25T01:25:02;93601.09;;;24.90;56.87
20037;BME280;10179;42.640;23.312;2022-08-25T01:27:08;93596.34;;;24.87;56.83
20037;BME280;10179;42.640;23.312;2022-08-25T01:29:34;93589.56;;;24.90;56.78
20037;BME280;10179;42.640;23.312;2022-08-25T01:32:03;93588.63;;;24.94;56.89
20037;BME280;10179;42.640;23.312;2022-08-25T01:34:32;93590.50;;;24.94;56.79
20037;BME280;10179;42.640;23.312;2022-08-25T01:36:59;93597.00;;;25.02;56.43
20037;BME280;10179;42.640;23.312;2022-08-25T01:39:26;93592.56;;;25.06;56.40
20037;BME280;10179;42.640;23.312;2022-08-25T01:42:03;93596.72;;;25.12;56.29
20037;BME280;10179;42.640;23.312;2022-08-25T01:44:41;93596.56;;;25.17;56.30
20037;BME280;10179;42.640;23.312;2022-08-25T01:47:09;93590.84;;;25.18;56.13
20037;BME280;10179;42.640;23.312;2022-08-25T01:49:35;93587.69;;;25.16;56.18
20037;BME280;10179;42.640;23.312;2022-08-25T01:52:04;93595.75;;;25.25;55.93
20037;BME280;10179;42.640;23.312;2022-08-25T01:54:30;93598.91;;;25.27;56.00
20037;BME280;10179;42.640;23.312;2022-08-25T01:56:57;93597.31;;;25.26;55.85
20037;BME280;10179;42.640;23.312;2022-08-25T01:59:23;93597.19;;;25.31;55.70
20037;BME280;10179;42.640;23.312;2022-08-25T02:01:49;93583.88;;;25.35;55.50
20037;BME280;10179;42.640;23.312;2022-08-25T02:04:14;93578.97;;;25.37;55.54
20037;BME280;10179;42.640;23.312;2022-08-25T02:06:40;93580.25;;;25.39;55.55
20037;BME280;10179;42.640;23.312;2022-08-25T02:09:11;93581.19;;;25.43;55.60
20037;BME280;10179;42.640;23.312;2022-08-25T02:11:39;93577.38;;;25.44;55.49
20037;BME280;10179;42.640;23.312;2022-08-25T02:14:07;93588.31;;;25.39;55.42
20037;BME280;10179;42.640;23.312;2022-08-25T02:16:34;93583.88;;;25.35;55.42
20037;BME280;10179;42.640;23.312;2022-08-25T02:19:02;93583.41;;;25.33;55.50
20037;BME280;10179;42.640;23.312;2022-08-25T02:21:27;93580.56;;;25.29;55.65
20037;BME280;10179;42.640;23.312;2022-08-25T02:23:54;93560.00;;;25.16;55.81
20037;BME280;10179;42.640;23.312;2022-08-25T02:26:21;93570.44;;;25.26;55.87
20037;BME280;10179;42.640;23.312;2022-08-25T02:28:48;93579.78;;;25.20;55.83
20037;BME280;10179;42.640;23.312;2022-08-25T02:31:16;93569.97;;;25.15;56.06
20037;BME280;10179;42.640;23.312;2022-08-25T02:33:43;93575.50;;;25.10;56.03
20037;BME280;10179;42.640;23.312;2022-08-25T02:36:08;93566.97;;;24.99;56.16
20037;BME280;10179;42.640;23.312;2022-08-25T02:38:35;93578.81;;;24.90;56.31
20037;BME280;10179;42.640;23.312;2022-08-25T02:41:12;93563.97;;;24.75;56.66
20037;BME280;10179;42.640;23.312;2022-08-25T02:43:39;93571.22;;;24.83;56.72
20037;BME280;10179;42.640;23.312;2022-08-25T02:46:06;93569.16;;;24.80;56.60
20037;BME280;10179;42.640;23.312;2022-08-25T02:48:32;93573.44;;;24.81;56.52
20037;BME280;10179;42.640;23.312;2022-08-25T02:50:59;93577.88;;;24.86;56.73
20037;BME280;10179;42.640;23.312;2022-08-25T02:53:26;93585.16;;;24.85;56.77
20037;BME280;10179;42.640;23.312;2022-08-25T02:55:53;93550.81;;;24.56;56.74
20037;BME280;10179;42.640;23.312;2022-08-25T02:58:19;93590.03;;;24.83;56.91
20037;BME280;10179;42.640;23.312;2022-08-25T03:00:45;93587.69;;;24.82;56.84
20037;BME280;10179;42.640;23.312;2022-08-25T03:03:11;93536.75;;;24.42;56.92
20037;BME280;10179;42.640;23.312;2022-08-25T03:05:37;93589.09;;;24.79;56.71
20037;BME280;10179;42.640;23.312;2022-08-25T03:08:04;93592.06;;;24.77;56.84
20037;BME280;10179;42.640;23.312;2022-08-25T03:10:30;93550.81;;;24.47;56.84
20037;BME280;10179;42.640;23.312;2022-08-25T03:12:56;93590.19;;;24.69;56.82
20037;BME280;10179;42.640;23.312;2022-08-25T03:15:21;93594.75;;;24.69;56.94
20037;BME280;10179;42.640;23.312;2022-08-25T03:17:48;93552.06;;;24.41;57.07
20037;BME280;10179;42.640;23.312;2022-08-25T03:20:14;93589.22;;;24.65;57.13
20037;BME280;10179;42.640;23.312;2022-08-25T03:22:39;93585.28;;;24.63;57.05
20037;BME280;10179;42.640;23.312;2022-08-25T03:25:05;93582.59;;;24.63;57.14
20037;BME280;10179;42.640;23.312;2022-08-25T03:27:50;93579.28;;;24.57;57.02
20037;BME280;10179;42.640;23.312;2022-08-25T03:30:16;93584.00;;;24.51;57.20
20037;BME280;10179;42.640;23.312;2022-08-25T03:32:42;93584.00;;;24.51;57.52
20037;BME280;10179;42.640;23.312;2022-08-25T03:35:08;93538.06;;;24.04;57.35
20037;BME280;10179;42.640;23.312;2022-08-25T03:37:34;93600.44;;;24.59;57.43
20037;BME280;10179;42.640;23.312;2022-08-25T03:40:04;93602.50;;;24.62;57.37
20037;BME280;10179;42.640;23.312;2022-08-25T03:42:30;93597.28;;;24.65;57.24
20037;BME280;10179;42.640;23.312;2022-08-25T03:44:55;93587.66;;;24.64;57.21
20037;BME280;10179;42.640;23.312;2022-08-25T03:47:21;93556.13;;;24.39;56.82
20037;BME280;10179;42.640;23.312;2022-08-25T03:49:50;93588.28;;;24.61;57.21
20037;BME280;10179;42.640;23.312;2022-08-25T03:52:16;93565.81;;;24.48;57.28
20037;BME280;10179;42.640;23.312;2022-08-25T03:54:43;93580.53;;;24.60;57.35
20037;BME280;10179;42.640;23.312;2022-08-25T03:57:09;93574.53;;;24.63;57.44
20037;BME280;10179;42.640;23.312;2022-08-25T03:59:34;93577.69;;;24.65;57.44
20037;BME280;10179;42.640;23.312;2022-08-25T04:02:03;93575.47;;;24.67;57.40
20037;BME280;10179;42.640;23.312;2022-08-25T04:04:29;93577.06;;;24.68;57.43
20037;BME280;10179;42.640;23.312;2022-08-25T04:06:55;93584.47;;;24.71;57.40
20037;BME280;10179;42.640;23.312;2022-08-25T04:09:21;93586.88;;;24.72;57.34
20037;BME280;10179;42.640;23.312;2022-08-25T04:11:47;93582.78;;;24.75;57.29
20037;BME280;10179;42.640;23.312;2022-08-25T04:14:12;93577.84;;;24.77;57.25
20037;BME280;10179;42.640;23.312;2022-08-25T04:16:39;93584.50;;;24.80;57.29
20037;BME280;10179;42.640;23.312;2022-08-25T04:19:06;93579.28;;;24.83;57.30
20037;BME280;10179;42.640;23.312;2022-08-25T04:21:34;93582.47;;;24.85;57.14
20037;BME280;10179;42.640;23.312;2022-08-25T04:23:59;93571.56;;;24.82;56.99
20037;BME280;10179;42.640;23.312;2022-08-25T04:26:31;93575.03;;;24.91;57.30
20037;BME280;10179;42.640;23.312;2022-08-25T04:28:58;93570.59;;;24.86;57.15
20037;BME280;10179;42.640;23.312;2022-08-25T04:31:24;93570.59;;;24.95;56.95
20037;BME280;10179;42.640;23.312;2022-08-25T04:33:51;93570.28;;;24.96;56.83
20037;BME280;10179;42.640;23.312;2022-08-25T04:36:17;93560.47;;;24.92;56.95
20037;BME280;10179;42.640;23.312;2022-08-25T04:38:45;93576.75;;;24.95;57.29
20037;BME280;10179;42.640;23.312;2022-08-25T04:41:12;93572.97;;;24.96;57.12
20037;BME280;10179;42.640;23.312;2022-08-25T04:43:39;93577.06;;;25.03;57.01
20037;BME280;10179;42.640;23.312;2022-08-25T04:46:12;93575.19;;;25.12;56.95
20037;BME280;10179;42.640;23.312;2022-08-25T04:48:38;93588.50;;;25.17;56.84
20037;BME280;10179;42.640;23.312;2022-08-25T04:51:10;93582.31;;;25.25;56.64
20037;BME280;10179;42.640;23.312;2022-08-25T04:53:36;93588.16;;;25.27;56.23
20037;BME280;10179;42.640;23.312;2022-08-25T04:56:05;93580.09;;;25.18;56.05
20037;BME280;10179;42.640;23.312;2022-08-25T04:58:31;93589.91;;;25.23;56.08
20037;BME280;10179;42.640;23.312;2022-08-25T05:01:03;93599.72;;;25.28;55.87
20037;BME280;10179;42.640;23.312;2022-08-25T05:03:29;93601.28;;;25.29;55.60
20037;BME280;10179;42.640;23.312;2022-08-25T05:05:55;93589.44;;;25.21;55.57
20037;BME280;10179;42.640;23.312;2022-08-25T05:08:21;93600.34;;;25.25;55.51
20037;BME280;10179;42.640;23.312;2022-08-25T05:10:46;93594.34;;;25.19;55.47
20037;BME280;10179;42.640;23.312;2022-08-25T05:13:11;93589.59;;;25.25;55.37
20037;BME280;10179;42.640;23.312;2022-08-25T05:15:37;93590.38;;;25.25;55.52
20037;BME280;10179;42.640;23.312;2022-08-25T05:18:15;93589.75;;;25.28;55.87
20037;BME280;10179;42.640;23.312;2022-08-25T05:20:41;93582.94;;;25.31;55.69
20037;BME280;10179;42.640;23.312;2022-08-25T05:23:06;93577.72;;;25.34;55.65
20037;BME280;10179;42.640;23.312;2022-08-25T05:25:32;93584.03;;;25.38;55.77
20037;BME280;10179;42.640;23.312;2022-08-25T05:27:58;93572.03;;;25.36;55.77
20037;BME280;10179;42.640;23.312;2022-08-25T05:30:23;93568.38;;;25.40;55.61
20037;BME280;10179;42.640;23.312;2022-08-25T05:32:49;93569.00;;;25.46;55.39
20037;BME280;10179;42.640;23.312;2022-08-25T05:35:14;93581.47;;;25.51;55.00
20037;BME280;10179;42.640;23.312;2022-08-25T05:37:40;93577.03;;;25.55;54.86
20037;BME280;10179;42.640;23.312;2022-08-25T05:40:06;93577.66;;;25.60;54.74
20037;BME280;10179;42.640;23.312;2022-08-25T05:42:33;93574.50;;;25.67;54.40
20037;BME280;10179;42.640;23.312;2022-08-25T05:44:58;93585.53;;;25.74;54.03
20037;BME280;10179;42.640;23.312;2022-08-25T05:47:24;93585.88;;;25.81;53.65
20037;BME280;10179;42.640;23.312;2022-08-25T05:49:49;93579.84;;;25.84;53.58
20037;BME280;10179;42.640;23.312;2022-08-25T05:52:15;93546.94;;;25.70;53.56
20037;BME280;10179;42.640;23.312;2022-08-25T05:54:41;93539.16;;;25.68;53.27
20037;BME280;10179;42.640;23.312;2022-08-25T05:57:06;93490.38;;;25.40;53.11
20037;BME280;10179;42.640;23.312;2022-08-25T05:59:33;93453.72;;;25.27;53.09
20037;BME280;10179;42.640;23.312;2022-08-25T06:01:59;93589.03;;;26.22;52.69
20037;BME280;10179;42.640;23.312;2022-08-25T06:04:43;93589.31;;;26.29;52.35
20037;BME280;10179;42.640;23.312;2022-08-25T06:07:09;93569.06;;;26.23;52.45
20037;BME280;10179;42.640;23.312;2022-08-25T06:09:37;93544.59;;;26.07;52.36
20037;BME280;10179;42.640;23.312;2022-08-25T06:12:03;93574.09;;;26.33;51.95
20037;BME280;10179;42.640;23.312;2022-08-25T06:14:29;93572.00;;;26.38;52.21
20037;BME280;10179;42.640;23.312;2022-08-25T06:16:54;93585.38;;;26.56;51.97
20037;BME280;10179;42.640;23.312;2022-08-25T06:19:21;93510.22;;;26.12;51.74
20037;BME280;10179;42.640;23.312;2022-08-25T06:21:48;93538.53;;;26.39;51.28
20037;BME280;10179;42.640;23.312;2022-08-25T06:24:13;93583.72;;;26.72;51.76
20037;BME280;10179;42.640;23.312;2022-08-25T06:26:39;93580.16;;;26.80;51.28
20037;BME280;10179;42.640;23.312;2022-08-25T06:29:04;93579.16;;;26.85;50.84
20037;BME280;10179;42.640;23.312;2022-08-25T06:31:29;93438.22;;;26.01;50.94
20037;BME280;10179;42.640;23.312;2022-08-25T06:33:55;93565.94;;;26.92;50.84
20037;BME280;10179;42.640;23.312;2022-08-25T06:36:22;93567.69;;;26.97;50.48
20037;BME280;10179;42.640;23.312;2022-08-25T06:38:47;93580.88;;;27.10;50.27
20037;BME280;10179;42.640;23.312;2022-08-25T06:41:13;93549.19;;;26.86;49.58
20037;BME280;10179;42.640;23.312;2022-08-25T06:43:40;93579.75;;;27.11;49.75
20037;BME280;10179;42.640;23.312;2022-08-25T06:46:10;93580.38;;;27.17;50.09
20037;BME280;10179;42.640;23.312;2022-08-25T06:48:37;93577.34;;;27.19;50.01
20037;BME280;10179;42.640;23.312;2022-08-25T06:51:10;93594.88;;;27.46;49.05
20037;BME280;10179;42.640;23.312;2022-08-25T06:53:37;93552.53;;;27.25;48.73
20037;BME280;10179;42.640;23.312;2022-08-25T06:56:03;93593.59;;;27.64;48.41
20037;BME280;10179;42.640;23.312;2022-08-25T06:58:30;93589.59;;;27.82;48.57
20037;BME280;10179;42.640;23.312;2022-08-25T07:00:55;93573.88;;;27.97;48.04
20037;BME280;10179;42.640;23.312;2022-08-25T07:03:21;93590.91;;;28.34;47.59
20037;BME280;10179;42.640;23.312;2022-08-25T07:05:51;93521.47;;;28.22;46.82
20037;BME280;10179;42.640;23.312;2022-08-25T07:08:17;93589.41;;;28.98;46.10
20037;BME280;10179;42.640;23.312;2022-08-25T07:10:42;93582.56;;;29.29;44.90
20037;BME280;10179;42.640;23.312;2022-08-25T07:13:07;93592.63;;;29.56;44.06
20037;BME280;10179;42.640;23.312;2022-08-25T07:15:37;93579.66;;;29.78;42.85
20037;BME280;10179;42.640;23.312;2022-08-25T07:18:02;93590.00;;;29.88;42.22
20037;BME280;10179;42.640;23.312;2022-08-25T07:20:28;93586.31;;;29.96;41.94
20037;BME280;10179;42.640;23.312;2022-08-25T07:22:53;93589.41;;;29.94;41.82
20037;BME280;10179;42.640;23.312;2022-08-25T07:25:19;93593.41;;;29.85;41.30
20037;BME280;10179;42.640;23.312;2022-08-25T07:27:44;93567.88;;;29.70;41.47
20037;BME280;10179;42.640;23.312;2022-08-25T07:30:10;93588.88;;;30.05;41.28
20037;BME280;10179;42.640;23.312;2022-08-25T07:32:36;93241.34;;;27.95;41.31
20037;BME280;10179;42.640;23.312;2022-08-25T07:35:01;93589.50;;;30.46;41.39
20037;BME280;10179;42.640;23.312;2022-08-25T07:37:51;93539.22;;;30.48;40.32
20037;BME280;10179;42.640;23.312;2022-08-25T07:40:32;93580.69;;;31.00;39.91
20037;BME280;10179;42.640;23.312;2022-08-25T07:43:01;93589.75;;;31.27;39.00
20037;BME280;10179;42.640;23.312;2022-08-25T07:45:30;93588.31;;;31.49;38.46
20037;BME280;10179;42.640;23.312;2022-08-25T07:47:57;93594.50;;;31.49;38.32
20037;BME280;10179;42.640;23.312;2022-08-25T07:50:24;93581.50;;;31.39;38.13
20037;BME280;10179;42.640;23.312;2022-08-25T07:52:50;93590.19;;;31.29;38.58
20037;BME280;10179;42.640;23.312;2022-08-25T07:55:15;93584.72;;;31.09;38.65
20037;BME280;10179;42.640;23.312;2022-08-25T07:57:41;93589.47;;;31.12;38.55
20037;BME280;10179;42.640;23.312;2022-08-25T08:00:08;93582.88;;;30.94;38.26
20037;BME280;10179;42.640;23.312;2022-08-25T08:02:37;93586.59;;;30.86;38.25
20037;BME280;10179;42.640;23.312;2022-08-25T08:05:03;93590.56;;;30.92;38.55
20037;BME280;10179;42.640;23.312;2022-08-25T08:07:29;93590.00;;;31.02;38.55
20037;BME280;10179;42.640;23.312;2022-08-25T08:09:56;93587.59;;;30.97;38.63
20037;BME280;10179;42.640;23.312;2022-08-25T08:12:22;93583.19;;;31.08;38.64
20037;BME280;10179;42.640;23.312;2022-08-25T08:14:49;93581.06;;;31.18;38.28
20037;BME280;10179;42.640;23.312;2022-08-25T08:17:14;93585.16;;;31.31;38.21
20037;BME280;10179;42.640;23.312;2022-08-25T08:19:40;93586.69;;;31.28;38.20
20037;BME280;10179;42.640;23.312;2022-08-25T08:22:05;93573.22;;;31.32;37.90
20037;BME280;10179;42.640;23.312;2022-08-25T08:24:32;93569.34;;;31.52;37.90
20037;BME280;10179;42.640;23.312;2022-08-25T08:27:05;93566.47;;;31.65;36.71
20037;BME280;10179;42.640;23.312;2022-08-25T08:29:32;93564.00;;;31.79;36.77
20037;BME280;10179;42.640;23.312;2022-08-25T08:31:58;93526.88;;;31.64;36.61
20037;BME280;10179;42.640;23.312;2022-08-25T08:34:24;93556.25;;;32.00;36.22
20037;BME280;10179;42.640;23.312;2022-08-25T08:36:49;93557.75;;;32.21;35.94
20037;BME280;10179;42.640;23.312;2022-08-25T08:39:15;93548.41;;;32.18;35.59
20037;BME280;10179;42.640;23.312;2022-08-25T08:41:56;93564.88;;;32.29;35.20
20037;BME280;10179;42.640;23.312;2022-08-25T08:50:31;93563.28;;;32.01;35.90
20037;BME280;10179;42.640;23.312;2022-08-25T08:55:35;93560.25;;;31.64;36.19
20037;BME280;10179;42.640;23.312;2022-08-25T08:58:09;93564.63;;;31.49;37.10
20037;BME280;10179;42.640;23.312;2022-08-25T09:00:41;93562.13;;;31.41;36.82
20037;BME280;10179;42.640;23.312;2022-08-25T09:03:39;93557.91;;;31.43;36.80
20037;BME280;10179;42.640;23.312;2022-08-25T09:06:30;93561.63;;;31.54;36.24
20037;BME280;10179;42.640;23.312;2022-08-25T09:08:58;93556.25;;;31.58;36.06
20037;BME280;10179;42.640;23.312;2022-08-25T09:14:25;93554.22;;;31.74;35.44
20037;BME280;10179;42.640;23.312;2022-08-25T09:17:02;93551.03;;;31.69;35.83
20037;BME280;10179;42.640;23.312;2022-08-25T09:33:18;93559.94;;;31.46;34.07
20037;BME280;10179;42.640;23.312;2022-08-25T09:35:44;93534.63;;;31.03;35.03
20037;BME280;10179;42.640;23.312;2022-08-25T09:38:11;93545.03;;;31.01;34.68
20037;BME280;10179;42.640;23.312;2022-08-25T09:40:40;93539.75;;;30.89;35.18
20037;BME280;10179;42.640;23.312;2022-08-25T09:46:23;93535.44;;;30.88;35.22
20037;BME280;10179;42.640;23.312;2022-08-25T09:48:57;93536.09;;;30.81;35.10
20037;BME280;10179;42.640;23.312;2022-08-25T09:51:36;93507.84;;;30.47;35.58
20037;BME280;10179;42.640;23.312;2022-08-25T09:56:58;93553.91;;;30.47;35.02
20037;BME280;10179;42.640;23.312;2022-08-25T09:59:29;93554.97;;;30.27;36.02
20037;BME280;10179;42.640;23.312;2022-08-25T10:01:58;93552.31;;;30.14;36.40
20037;BME280;10179;42.640;23.312;2022-08-25T10:04:26;93558.19;;;30.01;35.48
20037;BME280;10179;42.640;23.312;2022-08-25T10:06:53;93562.91;;;29.88;36.04
20037;BME280;10179;42.640;23.312;2022-08-25T10:09:27;93555.31;;;29.78;35.01
20037;BME280;10179;42.640;23.312;2022-08-25T10:11:55;93558.66;;;29.59;35.47
20037;BME280;10179;42.640;23.312;2022-08-25T10:17:17;93551.47;;;29.51;36.26
20037;BME280;10179;42.640;23.312;2022-08-25T10:19:50;93554.75;;;29.44;36.39
20037;BME280;10179;42.640;23.312;2022-08-25T10:22:25;93551.63;;;29.42;37.36
20037;BME280;10179;42.640;23.312;2022-08-25T10:24:57;93552.22;;;29.35;37.52
20037;BME280;10179;42.640;23.312;2022-08-25T10:30:57;93544.09;;;29.63;36.71
20037;BME280;10179;42.640;23.312;2022-08-25T10:33:37;93547.59;;;29.80;36.62
20037;BME280;10179;42.640;23.312;2022-08-25T10:36:23;93541.16;;;30.00;35.93
20037;BME280;10179;42.640;23.312;2022-08-25T10:38:56;93539.75;;;30.38;35.41
20037;BME280;10179;42.640;23.312;2022-08-25T10:44:13;93528.53;;;30.90;34.75
20037;BME280;10179;42.640;23.312;2022-08-25T10:49:55;93536.31;;;31.31;32.12
20037;BME280;10179;42.640;23.312;2022-08-25T10:52:38;93523.41;;;31.44;32.26
20037;BME280;10179;42.640;23.312;2022-08-25T10:55:19;93536.09;;;31.59;31.80
20037;BME280;10179;42.640;23.312;2022-08-25T10:57:57;93520.19;;;31.80;31.19
20037;BME280;10179;42.640;23.312;2022-08-25T11:00:31;93524.03;;;31.99;31.23
20037;BME280;10179;42.640;23.312;2022-08-25T11:05:50;93513.06;;;31.72;31.14
20037;BME280;10179;42.640;23.312;2022-08-25T11:08:39;93516.25;;;31.78;31.60
20037;BME280;10179;42.640;23.312;2022-08-25T11:11:36;93506.25;;;31.82;30.86
20037;BME280;10179;42.640;23.312;2022-08-25T11:14:09;93471.88;;;31.47;31.47
20037;BME280;10179;42.640;23.312;2022-08-25T11:16:50;93466.47;;;31.28;32.03
20037;BME280;10179;42.640;23.312;2022-08-25T11:19:28;93500.72;;;31.32;32.00
20037;BME280;10179;42.640;23.312;2022-08-25T11:25:22;93486.19;;;31.25;32.11
20037;BME280;10179;42.640;23.312;2022-08-25T11:30:09;93472.38;;;31.76;31.92
20037;BME280;10179;42.640;23.312;2022-08-25T11:32:37;93437.31;;;31.44;31.74
20037;BME280;10179;42.640;23.312;2022-08-25T11:35:06;93461.44;;;31.49;31.99
20037;BME280;10179;42.640;23.312;2022-08-25T11:37:33;93486.16;;;31.44;32.54
20037;BME280;10179;42.640;23.312;2022-08-25T11:40:11;93469.53;;;31.26;33.20
20037;BME280;10179;42.640;23.312;2022-08-25T11:42:59;93463.53;;;31.36;32.83
20037;BME280;10179;42.640;23.312;2022-08-25T11:48:44;93467.63;;;31.07;33.50
20037;BME280;10179;42.640;23.312;2022-08-25T11:51:54;93458.78;;;30.91;34.05
20037;BME280;10179;42.640;23.312;2022-08-25T11:54:25;93456.31;;;30.66;34.00
20037;BME280;10179;42.640;23.312;2022-08-25T11:57:04;93463.16;;;30.60;34.04
20037;BME280;10179;42.640;23.312;2022-08-25T12:11:02;93457.06;;;30.12;34.88
20037;BME280;10179;42.640;23.312;2022-08-25T12:19:24;93449.47;;;30.18;34.00
20037;BME280;10179;42.640;23.312;2022-08-25T12:21:51;93441.91;;;29.92;34.54
20037;BME280;10179;42.640;23.312;2022-08-25T12:27:29;93455.31;;;30.04;34.64
20037;BME280;10179;42.640;23.312;2022-08-25T12:38:09;93457.94;;;30.16;34.26
20037;BME280;10179;42.640;23.312;2022-08-25T12:40:51;93459.09;;;30.15;34.76
20037;BME280;10179;42.640;23.312;2022-08-25T12:43:24;93464.25;;;30.21;34.23
20037;BME280;10179;42.640;23.312;2022-08-25T12:45:52;93467.47;;;30.10;33.93
20037;BME280;10179;42.640;23.312;2022-08-25T12:51:00;93446.06;;;30.05;34.37
20037;BME280;10179;42.640;23.312;2022-08-25T12:53:48;93444.41;;;30.01;34.03
20037;BME280;10179;42.640;23.312;2022-08-25T12:59:16;93455.06;;;29.93;34.18
20037;BME280;10179;42.640;23.312;2022-08-25T13:02:13;93455.44;;;29.92;33.93
20037;BME280;10179;42.640;23.312;2022-08-25T13:16:00;93457.03;;;29.77;33.74
20037;BME280;10179;42.640;23.312;2022-08-25T13:18:29;93456.50;;;29.71;33.96
20037;BME280;10179;42.640;23.312;2022-08-25T13:21:26;93460.25;;;29.83;34.16
20037;BME280;10179;42.640;23.312;2022-08-25T13:23:55;93457.53;;;29.83;34.93
20037;BME280;10179;42.640;23.312;2022-08-25T13:26:27;93465.31;;;29.84;34.50
20037;BME280;10179;42.640;23.312;2022-08-25T13:31:22;93423.13;;;29.67;33.99
20037;BME280;10179;42.640;23.312;2022-08-25T13:34:01;93435.16;;;29.86;34.17
20037;BME280;10179;42.640;23.312;2022-08-25T13:36:29;93457.00;;;29.93;34.48
20037;BME280;10179;42.640;23.312;2022-08-25T13:39:16;93445.03;;;29.94;34.15
20037;BME280;10179;42.640;23.312;2022-08-25T13:41:48;93415.88;;;29.71;34.69
20037;BME280;10179;42.640;23.312;2022-08-25T13:44:15;93449.03;;;30.00;34.67
20037;BME280;10179;42.640;23.312;2022-08-25T13:46:42;93450.63;;;30.01;34.19
20037;BME280;10179;42.640;23.312;2022-08-25T13:49:09;93435.69;;;29.91;33.59
20037;BME280;10179;42.640;23.312;2022-08-25T13:51:36;93443.81;;;29.91;34.01
20037;BME280;10179;42.640;23.312;2022-08-25T13:54:08;93421.47;;;29.79;34.50
20037;BME280;10179;42.640;23.312;2022-08-25T13:56:47;93421.63;;;29.86;34.23
20037;BME280;10179;42.640;23.312;2022-08-25T13:59:30;93437.09;;;30.01;34.34
20037;BME280;10179;42.640;23.312;2022-08-25T14:01:59;93442.91;;;30.03;34.86
20037;BME280;10179;42.640;23.312;2022-08-25T14:04:32;93449.91;;;30.04;34.60
20037;BME280;10179;42.640;23.312;2022-08-25T14:07:13;93446.00;;;30.02;34.53
20037;BME280;10179;42.640;23.312;2022-08-25T14:12:27;93436.56;;;29.80;33.99
20037;BME280;10179;42.640;23.312;2022-08-25T14:14:59;93417.97;;;29.46;34.26
20037;BME280;10179;42.640;23.312;2022-08-25T14:17:25;93462.09;;;29.63;33.90
20037;BME280;10179;42.640;23.312;2022-08-25T14:19:50;93449.56;;;29.58;33.99
20037;BME280;10179;42.640;23.312;2022-08-25T14:22:15;93448.69;;;29.54;34.26
20037;BME280;10179;42.640;23.312;2022-08-25T14:24:41;93444.75;;;29.52;34.32
20037;BME280;10179;42.640;23.312;2022-08-25T14:27:08;93433.06;;;29.47;33.92
20037;BME280;10179;42.640;23.312;2022-08-25T14:29:33;93452.88;;;29.52;34.32
20037;BME280;10179;42.640;23.312;2022-08-25T14:31:59;93453.22;;;29.50;34.63
20037;BME280;10179;42.640;23.312;2022-08-25T14:34:29;93462.03;;;29.47;34.30
20037;BME280;10179;42.640;23.312;2022-08-25T14:36:57;93443.19;;;29.35;33.93
20037;BME280;10179;42.640;23.312;2022-08-25T14:39:24;93452.44;;;29.34;34.28
20037;BME280;10179;42.640;23.312;2022-08-25T14:41:50;93441.00;;;29.24;34.69
20037;BME280;10179;42.640;23.312;2022-08-25T14:44:16;93450.31;;;29.27;34.56
20037;BME280;10179;42.640;23.312;2022-08-25T14:46:45;93413.56;;;29.10;35.01